sensor_id;sensor_type;location;lat;lon;timestamp;pressure;altitude;pressure_sealevel;temperature;humidity
34124;BME280;13153;52.316;21.166;2023-05-03T00:01:00;101050.97;;;16.65;47.08
34124;BME280;13153;52.316;21.166;2023-05-03T00:03:27;101057.06;;;16.60;46.83
34124;BME280;13153;52.316;21.166;2023-05-03T00:05:53;101053.50;;;16.58;46.71
34124;BME280;13153;52.316;21.166;2023-05-03T00:08:19;101047.25;;;16.52;46.36
34124;BME280;13153;52.316;21.166;2023-05-03T00:10:46;101047.19;;;16.49;46.87
34124;BME280;13153;52.316;21.166;2023-05-03T00:13:12;101050.72;;;16.47;47.05
34124;BME280;13153;52.316;21.166;2023-05-03T00:15:38;101051.53;;;16.41;46.77
34124;BME280;13153;52.316;21.166;2023-05-03T00:18:03;101050.59;;;16.39;46.70
34124;BME280;13153;52.316;21.166;2023-05-03T00:20:30;101057.63;;;16.36;46.95
34124;BME280;13153;52.316;21.166;2023-05-03T00:22:56;101057.63;;;16.34;47.15
34124;BME280;13153;52.316;21.166;2023-05-03T00:25:21;101054.13;;;16.37;46.98
34124;BME280;13153;52.316;21.166;2023-05-03T00:27:47;101062.06;;;16.35;46.95
34124;BME280;13153;52.316;21.166;2023-05-03T00:30:13;101064.72;;;16.35;46.73
34124;BME280;13153;52.316;21.166;2023-05-03T00:32:39;101061.16;;;16.35;46.52
34124;BME280;13153;52.316;21.166;2023-05-03T00:35:05;101064.69;;;16.34;46.64
34124;BME280;13153;52.316;21.166;2023-05-03T00:37:31;101059.34;;;16.31;46.40
34124;BME280;13153;52.316;21.166;2023-05-03T00:39:57;101061.09;;;16.30;46.99
34124;BME280;13153;52.316;21.166;2023-05-03T00:42:23;101062.00;;;16.32;46.85
34124;BME280;13153;52.316;21.166;2023-05-03T00:44:49;101062.84;;;16.28;47.11
34124;BME280;13153;52.316;21.166;2023-05-03T00:47:15;101048.72;;;16.31;47.26
34124;BME280;13153;52.316;21.166;2023-05-03T00:49:42;101046.94;;;16.31;46.13
34124;BME280;13153;52.316;21.166;2023-05-03T00:52:09;101038.03;;;16.26;45.33
34124;BME280;13153;52.316;21.166;2023-05-03T00:54:36;101048.59;;;16.23;46.16
34124;BME280;13153;52.316;21.166;2023-05-03T00:57:03;101039.75;;;16.23;45.91
34124;BME280;13153;52.316;21.166;2023-05-03T00:59:31;101048.53;;;16.18;45.97
34124;BME280;13153;52.316;21.166;2023-05-03T01:01:59;101046.78;;;16.19;46.01
34124;BME280;13153;52.316;21.166;2023-05-03T01:04:25;101049.41;;;16.17;45.79
34124;BME280;13153;52.316;21.166;2023-05-03T01:06:57;101059.16;;;16.18;45.96
34124;BME280;13153;52.316;21.166;2023-05-03T01:09:38;101053.78;;;16.11;46.56
34124;BME280;13153;52.316;21.166;2023-05-03T01:15:16;101075.78;;;16.04;46.78
34124;BME280;13153;52.316;21.166;2023-05-03T01:17:58;101079.34;;;16.06;47.00
34124;BME280;13153;52.316;21.166;2023-05-03T01:20:29;101074.00;;;16.03;47.19
34124;BME280;13153;52.316;21.166;2023-05-03T01:23:04;101079.28;;;16.01;47.42
34124;BME280;13153;52.316;21.166;2023-05-03T01:25:34;101080.06;;;15.94;47.51
34124;BME280;13153;52.316;21.166;2023-05-03T01:28:00;101083.53;;;15.90;47.13
34124;BME280;13153;52.316;21.166;2023-05-03T01:30:27;101083.44;;;15.84;46.79
34124;BME280;13153;52.316;21.166;2023-05-03T01:38:22;101089.25;;;15.63;46.98
34124;BME280;13153;52.316;21.166;2023-05-03T01:40:52;101092.66;;;15.56;46.63
34124;BME280;13153;52.316;21.166;2023-05-03T01:43:21;101101.34;;;15.47;46.85
34124;BME280;13153;52.316;21.166;2023-05-03T01:45:48;101095.94;;;15.41;46.52
34124;BME280;13153;52.316;21.166;2023-05-03T01:48:17;101096.69;;;15.34;46.54
34124;BME280;13153;52.316;21.166;2023-05-03T01:50:43;101104.53;;;15.28;46.74
34124;BME280;13153;52.316;21.166;2023-05-03T01:53:10;101103.50;;;15.22;46.38
34124;BME280;13153;52.316;21.166;2023-05-03T01:55:36;101102.50;;;15.15;46.69
34124;BME280;13153;52.316;21.166;2023-05-03T01:58:02;101107.75;;;15.12;46.89
34124;BME280;13153;52.316;21.166;2023-05-03T02:00:29;101097.09;;;15.10;46.57
34124;BME280;13153;52.316;21.166;2023-05-03T02:02:55;101098.88;;;15.10;46.55
34124;BME280;13153;52.316;21.166;2023-05-03T02:05:21;101093.56;;;15.10;46.98
34124;BME280;13153;52.316;21.166;2023-05-03T02:07:47;101098.84;;;15.08;47.10
34124;BME280;13153;52.316;21.166;2023-05-03T02:10:13;101102.25;;;15.03;47.11
34124;BME280;13153;52.316;21.166;2023-05-03T02:12:45;101094.22;;;14.97;47.27
34124;BME280;13153;52.316;21.166;2023-05-03T02:15:11;101093.19;;;14.90;47.62
34124;BME280;13153;52.316;21.166;2023-05-03T02:17:41;101097.41;;;14.80;48.01
34124;BME280;13153;52.316;21.166;2023-05-03T02:20:08;101096.50;;;14.78;47.29
34124;BME280;13153;52.316;21.166;2023-05-03T02:22:34;101092.81;;;14.72;47.61
34124;BME280;13153;52.316;21.166;2023-05-03T02:25:00;101099.78;;;14.67;48.07
34124;BME280;13153;52.316;21.166;2023-05-03T02:27:26;101096.16;;;14.63;47.76
34124;BME280;13153;52.316;21.166;2023-05-03T02:29:52;101095.25;;;14.63;47.82
34124;BME280;13153;52.316;21.166;2023-05-03T02:32:18;101097.91;;;14.63;47.92
34124;BME280;13153;52.316;21.166;2023-05-03T02:34:48;101107.69;;;14.65;47.82
34124;BME280;13153;52.316;21.166;2023-05-03T02:37:15;101115.66;;;14.67;47.74
34124;BME280;13153;52.316;21.166;2023-05-03T02:39:41;101109.41;;;14.63;48.23
34124;BME280;13153;52.316;21.166;2023-05-03T02:42:07;101113.81;;;14.63;48.27
34124;BME280;13153;52.316;21.166;2023-05-03T02:44:34;101115.56;;;14.62;48.90
34124;BME280;13153;52.316;21.166;2023-05-03T02:47:00;101124.47;;;14.66;48.89
34124;BME280;13153;52.316;21.166;2023-05-03T02:49:26;101121.84;;;14.67;49.13
34124;BME280;13153;52.316;21.166;2023-05-03T02:51:51;101120.16;;;14.71;48.92
34124;BME280;13153;52.316;21.166;2023-05-03T02:54:17;101121.03;;;14.70;48.95
34124;BME280;13153;52.316;21.166;2023-05-03T02:56:43;101121.91;;;14.70;48.82
34124;BME280;13153;52.316;21.166;2023-05-03T02:59:09;101132.41;;;14.66;48.83
34124;BME280;13153;52.316;21.166;2023-05-03T03:01:36;101129.75;;;14.66;49.23
34124;BME280;13153;52.316;21.166;2023-05-03T03:04:02;101131.63;;;14.70;49.40
34124;BME280;13153;52.316;21.166;2023-05-03T03:06:28;101137.75;;;14.67;49.11
34124;BME280;13153;52.316;21.166;2023-05-03T03:08:53;101130.78;;;14.72;49.03
34124;BME280;13153;52.316;21.166;2023-05-03T03:11:19;101128.25;;;14.77;48.98
34124;BME280;13153;52.316;21.166;2023-05-03T03:13:45;101132.69;;;14.78;49.52
34124;BME280;13153;52.316;21.166;2023-05-03T03:16:11;101143.25;;;14.76;49.35
34124;BME280;13153;52.316;21.166;2023-05-03T03:18:37;101137.88;;;14.73;48.62
34124;BME280;13153;52.316;21.166;2023-05-03T03:21:03;101138.88;;;14.78;48.82
34124;BME280;13153;52.316;21.166;2023-05-03T03:23:29;101139.81;;;14.80;48.39
34124;BME280;13153;52.316;21.166;2023-05-03T03:25:55;101137.13;;;14.79;48.24
34124;BME280;13153;52.316;21.166;2023-05-03T03:28:21;101134.50;;;14.80;48.38
34124;BME280;13153;52.316;21.166;2023-05-03T03:30:47;101141.56;;;14.80;48.25
34124;BME280;13153;52.316;21.166;2023-05-03T03:33:13;101141.63;;;14.83;49.03
34124;BME280;13153;52.316;21.166;2023-05-03T03:35:39;101146.06;;;14.84;48.92
34124;BME280;13153;52.316;21.166;2023-05-03T03:38:04;101144.34;;;14.86;48.46
34124;BME280;13153;52.316;21.166;2023-05-03T03:40:30;101149.72;;;14.89;49.06
34124;BME280;13153;52.316;21.166;2023-05-03T03:42:56;101156.84;;;14.93;48.65
34124;BME280;13153;52.316;21.166;2023-05-03T03:45:22;101151.56;;;14.93;48.94
34124;BME280;13153;52.316;21.166;2023-05-03T03:47:48;101147.19;;;14.95;48.45
34124;BME280;13153;52.316;21.166;2023-05-03T03:50:14;101148.19;;;15.00;47.89
34124;BME280;13153;52.316;21.166;2023-05-03T03:52:41;101150.03;;;15.06;47.27
34124;BME280;13153;52.316;21.166;2023-05-03T03:55:07;101163.25;;;15.04;47.38
34124;BME280;13153;52.316;21.166;2023-05-03T03:57:32;101171.22;;;15.06;47.35
34124;BME280;13153;52.316;21.166;2023-05-03T03:59:58;101170.53;;;15.14;47.06
34124;BME280;13153;52.316;21.166;2023-05-03T04:02:26;101172.47;;;15.23;47.01
34124;BME280;13153;52.316;21.166;2023-05-03T04:04:51;101168.19;;;15.30;46.79
34124;BME280;13153;52.316;21.166;2023-05-03T04:07:17;101179.84;;;15.38;45.83
34124;BME280;13153;52.316;21.166;2023-05-03T04:09:43;101178.25;;;15.46;45.46
34124;BME280;13153;52.316;21.166;2023-05-03T04:12:09;101180.16;;;15.53;45.45
34124;BME280;13153;52.316;21.166;2023-05-03T04:14:35;101188.38;;;15.67;45.77
34124;BME280;13153;52.316;21.166;2023-05-03T04:17:00;101191.34;;;15.83;45.08
34124;BME280;13153;52.316;21.166;2023-05-03T04:19:26;101201.44;;;16.04;44.58
34124;BME280;13153;52.316;21.166;2023-05-03T04:21:53;101195.56;;;16.25;44.21
34124;BME280;13153;52.316;21.166;2023-05-03T04:24:18;101197.75;;;16.50;43.52
34124;BME280;13153;52.316;21.166;2023-05-03T04:26:44;101207.00;;;16.72;42.44
34124;BME280;13153;52.316;21.166;2023-05-03T04:29:11;101199.19;;;16.86;41.97
34124;BME280;13153;52.316;21.166;2023-05-03T04:31:39;101203.81;;;17.01;41.84
34124;BME280;13153;52.316;21.166;2023-05-03T04:34:05;101206.81;;;17.25;41.11
34124;BME280;13153;52.316;21.166;2023-05-03T04:36:32;101208.97;;;17.60;40.90
34124;BME280;13153;52.316;21.166;2023-05-03T04:38:58;101213.97;;;18.14;39.38
34124;BME280;13153;52.316;21.166;2023-05-03T04:41:24;101212.59;;;18.65;38.60
34124;BME280;13153;52.316;21.166;2023-05-03T04:43:50;101218.25;;;19.20;37.47
34124;BME280;13153;52.316;21.166;2023-05-03T04:46:16;101213.16;;;19.97;36.30
34124;BME280;13153;52.316;21.166;2023-05-03T04:48:44;101219.41;;;20.77;34.52
34124;BME280;13153;52.316;21.166;2023-05-03T04:51:10;101226.31;;;21.45;33.09
34124;BME280;13153;52.316;21.166;2023-05-03T04:53:36;101229.38;;;22.26;31.76
34124;BME280;13153;52.316;21.166;2023-05-03T04:56:01;101229.59;;;23.00;30.65
34124;BME280;13153;52.316;21.166;2023-05-03T04:58:27;101233.53;;;23.44;29.59
34124;BME280;13153;52.316;21.166;2023-05-03T05:00:53;101243.38;;;24.09;28.51
34124;BME280;13153;52.316;21.166;2023-05-03T05:03:19;101244.00;;;24.80;27.83
34124;BME280;13153;52.316;21.166;2023-05-03T05:05:45;101244.38;;;25.51;26.60
34124;BME280;13153;52.316;21.166;2023-05-03T05:08:11;101247.25;;;26.22;25.65
34124;BME280;13153;52.316;21.166;2023-05-03T05:10:42;101253.53;;;27.26;24.27
34124;BME280;13153;52.316;21.166;2023-05-03T05:13:08;101256.59;;;28.04;23.43
34124;BME280;13153;52.316;21.166;2023-05-03T05:15:34;101257.41;;;28.62;23.02
34124;BME280;13153;52.316;21.166;2023-05-03T05:18:00;101267.72;;;29.52;21.12
34124;BME280;13153;52.316;21.166;2023-05-03T05:20:26;101260.28;;;30.26;21.26
34124;BME280;13153;52.316;21.166;2023-05-03T05:22:51;101255.53;;;31.35;19.70
34124;BME280;13153;52.316;21.166;2023-05-03T05:25:17;101258.56;;;32.42;18.54
34124;BME280;13153;52.316;21.166;2023-05-03T05:27:43;101269.19;;;33.17;17.36
34124;BME280;13153;52.316;21.166;2023-05-03T05:30:09;101273.91;;;33.64;17.05
34124;BME280;13153;52.316;21.166;2023-05-03T05:32:35;101264.94;;;33.95;16.21
34124;BME280;13153;52.316;21.166;2023-05-03T05:35:01;101265.78;;;34.27;16.67
34124;BME280;13153;52.316;21.166;2023-05-03T05:37:27;101271.69;;;34.96;15.86
34124;BME280;13153;52.316;21.166;2023-05-03T05:39:53;101272.53;;;35.41;15.43
34124;BME280;13153;52.316;21.166;2023-05-03T05:42:19;101277.72;;;35.46;14.39
34124;BME280;13153;52.316;21.166;2023-05-03T05:44:45;101269.84;;;35.25;14.98
34124;BME280;13153;52.316;21.166;2023-05-03T05:47:11;101280.88;;;35.68;14.22
34124;BME280;13153;52.316;21.166;2023-05-03T05:49:37;101289.44;;;36.04;14.11
34124;BME280;13153;52.316;21.166;2023-05-03T05:52:03;101287.53;;;36.60;14.11
34124;BME280;13153;52.316;21.166;2023-05-03T05:54:29;101291.97;;;37.15;13.36
34124;BME280;13153;52.316;21.166;2023-05-03T05:56:56;101284.66;;;37.54;12.72
34124;BME280;13153;52.316;21.166;2023-05-03T05:59:22;101300.47;;;37.38;12.76
34124;BME280;13153;52.316;21.166;2023-05-03T06:01:48;101302.34;;;37.75;11.88
34124;BME280;13153;52.316;21.166;2023-05-03T06:04:15;101315.31;;;37.48;12.48
34124;BME280;13153;52.316;21.166;2023-05-03T06:06:41;101310.56;;;37.75;12.06
34124;BME280;13153;52.316;21.166;2023-05-03T06:09:07;101308.69;;;38.01;12.43
34124;BME280;13153;52.316;21.166;2023-05-03T06:11:34;101306.59;;;37.92;11.95
34124;BME280;13153;52.316;21.166;2023-05-03T06:14:00;101311.47;;;37.76;12.39
34124;BME280;13153;52.316;21.166;2023-05-03T06:16:28;101312.66;;;38.33;11.82
34124;BME280;13153;52.316;21.166;2023-05-03T06:18:54;101315.13;;;38.62;10.54
34124;BME280;13153;52.316;21.166;2023-05-03T06:21:21;101310.28;;;38.77;10.85
34124;BME280;13153;52.316;21.166;2023-05-03T06:23:47;101314.59;;;38.44;10.84
34124;BME280;13153;52.316;21.166;2023-05-03T06:26:12;101318.69;;;38.39;11.33
34124;BME280;13153;52.316;21.166;2023-05-03T06:28:38;101318.22;;;38.45;11.24
34124;BME280;13153;52.316;21.166;2023-05-03T06:31:04;101319.03;;;38.34;11.54
34124;BME280;13153;52.316;21.166;2023-05-03T06:33:30;101329.63;;;38.64;11.20
34124;BME280;13153;52.316;21.166;2023-05-03T06:35:55;101323.44;;;38.37;11.44
34124;BME280;13153;52.316;21.166;2023-05-03T06:38:21;101324.03;;;38.77;11.28
34124;BME280;13153;52.316;21.166;2023-05-03T06:40:47;101326.72;;;38.89;11.81
34124;BME280;13153;52.316;21.166;2023-05-03T06:43:14;101326.19;;;39.54;10.85
34124;BME280;13153;52.316;21.166;2023-05-03T06:45:42;101329.84;;;40.22;10.12
34124;BME280;13153;52.316;21.166;2023-05-03T06:48:08;101328.28;;;39.40;10.76
34124;BME280;13153;52.316;21.166;2023-05-03T06:50:34;101323.72;;;39.16;11.09
34124;BME280;13153;52.316;21.166;2023-05-03T06:53:01;101336.38;;;39.99;9.86
34124;BME280;13153;52.316;21.166;2023-05-03T06:55:27;101332.59;;;39.88;10.20
34124;BME280;13153;52.316;21.166;2023-05-03T06:57:53;101331.84;;;39.53;10.42
34124;BME280;13153;52.316;21.166;2023-05-03T07:00:19;101341.88;;;39.65;10.04
34124;BME280;13153;52.316;21.166;2023-05-03T07:02:48;101339.03;;;39.20;9.99
34124;BME280;13153;52.316;21.166;2023-05-03T07:05:13;101337.47;;;39.05;10.06
34124;BME280;13153;52.316;21.166;2023-05-03T07:07:39;101330.84;;;38.60;11.33
34124;BME280;13153;52.316;21.166;2023-05-03T07:10:06;101331.03;;;38.70;11.05
34124;BME280;13153;52.316;21.166;2023-05-03T07:12:32;101329.69;;;38.39;11.54
34124;BME280;13153;52.316;21.166;2023-05-03T07:14:57;101331.78;;;38.72;11.78
34124;BME280;13153;52.316;21.166;2023-05-03T07:17:24;101332.63;;;39.31;11.24
34124;BME280;13153;52.316;21.166;2023-05-03T07:19:51;101334.97;;;38.89;10.76
34124;BME280;13153;52.316;21.166;2023-05-03T07:22:18;101338.38;;;37.96;11.48
34124;BME280;13153;52.316;21.166;2023-05-03T07:24:52;101334.69;;;36.53;12.72
34124;BME280;13153;52.316;21.166;2023-05-03T07:27:19;101326.44;;;35.97;12.89
34124;BME280;13153;52.316;21.166;2023-05-03T07:29:45;101316.25;;;36.14;12.54
34124;BME280;13153;52.316;21.166;2023-05-03T07:32:11;101327.41;;;36.25;12.48
34124;BME280;13153;52.316;21.166;2023-05-03T07:34:37;101331.63;;;36.57;12.82
34124;BME280;13153;52.316;21.166;2023-05-03T07:37:03;101342.06;;;36.79;12.72
34124;BME280;13153;52.316;21.166;2023-05-03T07:39:29;101332.84;;;36.80;11.94
34124;BME280;13153;52.316;21.166;2023-05-03T07:41:55;101343.75;;;37.07;12.63
34124;BME280;13153;52.316;21.166;2023-05-03T07:44:21;101338.91;;;36.44;11.67
34124;BME280;13153;52.316;21.166;2023-05-03T07:46:47;101335.75;;;34.76;13.04
34124;BME280;13153;52.316;21.166;2023-05-03T07:49:13;101339.75;;;33.42;13.61
34124;BME280;13153;52.316;21.166;2023-05-03T07:51:39;101332.28;;;32.39;14.81
34124;BME280;13153;52.316;21.166;2023-05-03T07:54:05;101330.72;;;32.52;15.12
34124;BME280;13153;52.316;21.166;2023-05-03T07:56:31;101331.03;;;32.46;15.48
34124;BME280;13153;52.316;21.166;2023-05-03T07:58:57;101328.28;;;32.46;15.34
34124;BME280;13153;52.316;21.166;2023-05-03T08:01:23;101335.44;;;32.48;15.70
34124;BME280;13153;52.316;21.166;2023-05-03T08:03:49;101328.91;;;32.15;16.17
34124;BME280;13153;52.316;21.166;2023-05-03T08:06:18;101335.78;;;30.83;15.71
34124;BME280;13153;52.316;21.166;2023-05-03T08:08:45;101338.34;;;29.24;17.17
34124;BME280;13153;52.316;21.166;2023-05-03T08:11:11;101337.13;;;28.53;18.38
34124;BME280;13153;52.316;21.166;2023-05-03T08:13:37;101330.44;;;28.37;18.39
34124;BME280;13153;52.316;21.166;2023-05-03T08:16:03;101330.84;;;27.95;18.56
34124;BME280;13153;52.316;21.166;2023-05-03T08:18:30;101325.66;;;27.24;18.92
34124;BME280;13153;52.316;21.166;2023-05-03T08:20:56;101325.53;;;26.96;19.51
34124;BME280;13153;52.316;21.166;2023-05-03T08:23:23;101314.44;;;26.36;19.92
34124;BME280;13153;52.316;21.166;2023-05-03T08:25:50;101314.78;;;26.19;19.89
34124;BME280;13153;52.316;21.166;2023-05-03T08:28:16;101316.41;;;26.26;20.12
34124;BME280;13153;52.316;21.166;2023-05-03T08:30:42;101320.19;;;26.19;20.13
34124;BME280;13153;52.316;21.166;2023-05-03T08:33:08;101328.94;;;26.29;19.95
34124;BME280;13153;52.316;21.166;2023-05-03T08:35:36;101319.53;;;26.48;21.08
34124;BME280;13153;52.316;21.166;2023-05-03T08:38:02;101323.69;;;26.61;20.85
34124;BME280;13153;52.316;21.166;2023-05-03T08:40:30;101312.19;;;26.55;19.50
34124;BME280;13153;52.316;21.166;2023-05-03T08:43:09;101308.00;;;26.42;19.90
34124;BME280;13153;52.316;21.166;2023-05-03T08:45:34;101319.53;;;26.08;20.17
34124;BME280;13153;52.316;21.166;2023-05-03T08:48:00;101320.59;;;26.01;20.29
34124;BME280;13153;52.316;21.166;2023-05-03T08:50:29;101313.78;;;25.85;19.36
34124;BME280;13153;52.316;21.166;2023-05-03T08:52:56;101324.38;;;25.94;20.90
34124;BME280;13153;52.316;21.166;2023-05-03T08:55:22;101325.88;;;26.06;20.47
34124;BME280;13153;52.316;21.166;2023-05-03T08:57:47;101317.22;;;25.93;19.73
34124;BME280;13153;52.316;21.166;2023-05-03T09:00:14;101323.75;;;25.81;19.48
34124;BME280;13153;52.316;21.166;2023-05-03T09:02:40;101323.38;;;25.53;19.71
34124;BME280;13153;52.316;21.166;2023-05-03T09:08:07;101321.56;;;25.09;22.33
34124;BME280;13153;52.316;21.166;2023-05-03T09:10:39;101316.66;;;24.82;21.24
34124;BME280;13153;52.316;21.166;2023-05-03T09:13:05;101323.56;;;24.43;20.99
34124;BME280;13153;52.316;21.166;2023-05-03T09:15:32;101319.56;;;24.10;22.09
34124;BME280;13153;52.316;21.166;2023-05-03T09:18:16;101320.41;;;24.15;23.28
34124;BME280;13153;52.316;21.166;2023-05-03T09:20:44;101326.63;;;24.18;22.30
34124;BME280;13153;52.316;21.166;2023-05-03T09:25:53;101322.59;;;23.84;22.11
34124;BME280;13153;52.316;21.166;2023-05-03T09:28:20;101324.72;;;23.60;22.07
34124;BME280;13153;52.316;21.166;2023-05-03T09:30:47;101323.00;;;23.50;22.38
34124;BME280;13153;52.316;21.166;2023-05-03T09:33:14;101322.00;;;23.63;23.52
34124;BME280;13153;52.316;21.166;2023-05-03T09:36:02;101321.69;;;23.85;23.93
34124;BME280;13153;52.316;21.166;2023-05-03T09:38:34;101333.25;;;23.91;23.66
34124;BME280;13153;52.316;21.166;2023-05-03T09:41:02;101327.03;;;23.89;27.05
34124;BME280;13153;52.316;21.166;2023-05-03T09:43:31;101330.91;;;23.67;23.11
34124;BME280;13153;52.316;21.166;2023-05-03T09:46:11;101325.75;;;23.46;24.21
34124;BME280;13153;52.316;21.166;2023-05-03T09:48:38;101333.88;;;23.38;24.06
34124;BME280;13153;52.316;21.166;2023-05-03T09:51:06;101326.75;;;23.37;23.53
34124;BME280;13153;52.316;21.166;2023-05-03T09:53:34;101314.09;;;23.48;24.85
34124;BME280;13153;52.316;21.166;2023-05-03T09:56:06;101314.84;;;23.62;23.45
34124;BME280;13153;52.316;21.166;2023-05-03T09:58:41;101329.06;;;23.69;24.39
34124;BME280;13153;52.316;21.166;2023-05-03T10:01:08;101330.09;;;23.60;23.26
34124;BME280;13153;52.316;21.166;2023-05-03T10:03:43;101324.91;;;23.42;22.82
34124;BME280;13153;52.316;21.166;2023-05-03T10:09:07;101327.84;;;23.18;23.26
34124;BME280;13153;52.316;21.166;2023-05-03T10:11:42;101330.53;;;23.18;23.57
34124;BME280;13153;52.316;21.166;2023-05-03T10:14:10;101326.84;;;23.28;24.60
34124;BME280;13153;52.316;21.166;2023-05-03T10:16:39;101324.03;;;23.40;25.16
34124;BME280;13153;52.316;21.166;2023-05-03T10:19:18;101326.56;;;23.55;25.73
34124;BME280;13153;52.316;21.166;2023-05-03T10:22:08;101329.03;;;23.70;25.21
34124;BME280;13153;52.316;21.166;2023-05-03T10:27:50;101316.72;;;23.56;21.75
34124;BME280;13153;52.316;21.166;2023-05-03T10:32:58;101326.09;;;23.12;23.05
34124;BME280;13153;52.316;21.166;2023-05-03T10:35:28;101329.81;;;23.02;24.58
34124;BME280;13153;52.316;21.166;2023-05-03T10:37:55;101327.16;;;22.99;24.21
34124;BME280;13153;52.316;21.166;2023-05-03T10:40:21;101323.63;;;22.94;24.45
34124;BME280;13153;52.316;21.166;2023-05-03T10:42:53;101324.56;;;22.90;23.70
34124;BME280;13153;52.316;21.166;2023-05-03T10:45:27;101324.59;;;22.84;25.41
34124;BME280;13153;52.316;21.166;2023-05-03T10:50:41;101332.66;;;22.84;24.81
34124;BME280;13153;52.316;21.166;2023-05-03T10:53:08;101327.47;;;22.56;24.00
34124;BME280;13153;52.316;21.166;2023-05-03T10:56:19;101325.75;;;22.52;24.22
34124;BME280;13153;52.316;21.166;2023-05-03T10:58:48;101325.81;;;22.43;24.19
34124;BME280;13153;52.316;21.166;2023-05-03T11:01:18;101325.81;;;22.42;24.54
34124;BME280;13153;52.316;21.166;2023-05-03T11:06:31;101320.53;;;22.28;25.27
34124;BME280;13153;52.316;21.166;2023-05-03T11:08:58;101320.50;;;22.35;25.66
34124;BME280;13153;52.316;21.166;2023-05-03T11:11:24;101322.13;;;22.55;25.57
34124;BME280;13153;52.316;21.166;2023-05-03T11:13:50;101328.22;;;22.77;27.02
34124;BME280;13153;52.316;21.166;2023-05-03T11:16:17;101329.09;;;22.83;25.58
34124;BME280;13153;52.316;21.166;2023-05-03T11:18:43;101326.50;;;22.65;24.52
34124;BME280;13153;52.316;21.166;2023-05-03T11:21:10;101332.13;;;22.34;24.56
34124;BME280;13153;52.316;21.166;2023-05-03T11:23:38;101337.78;;;21.80;26.28
34124;BME280;13153;52.316;21.166;2023-05-03T11:26:08;101336.06;;;21.56;25.86
34124;BME280;13153;52.316;21.166;2023-05-03T11:28:39;101345.00;;;21.56;29.22
34124;BME280;13153;52.316;21.166;2023-05-03T11:31:05;101326.22;;;21.65;30.19
34124;BME280;13153;52.316;21.166;2023-05-03T11:33:33;101331.56;;;21.68;27.76
34124;BME280;13153;52.316;21.166;2023-05-03T11:36:03;101333.34;;;21.69;25.89
34124;BME280;13153;52.316;21.166;2023-05-03T11:38:34;101338.72;;;21.66;24.78
34124;BME280;13153;52.316;21.166;2023-05-03T11:41:16;101337.78;;;21.72;28.34
34124;BME280;13153;52.316;21.166;2023-05-03T11:43:49;101342.19;;;21.87;30.68
34124;BME280;13153;52.316;21.166;2023-05-03T11:46:24;101337.66;;;21.96;26.74
34124;BME280;13153;52.316;21.166;2023-05-03T11:48:51;101334.94;;;22.13;27.71
34124;BME280;13153;52.316;21.166;2023-05-03T11:51:24;101342.06;;;22.17;27.05
34124;BME280;13153;52.316;21.166;2023-05-03T11:53:51;101338.44;;;22.24;32.75
34124;BME280;13153;52.316;21.166;2023-05-03T11:56:17;101341.13;;;22.24;26.79
34124;BME280;13153;52.316;21.166;2023-05-03T11:58:57;101332.22;;;22.16;25.27
34124;BME280;13153;52.316;21.166;2023-05-03T12:01:26;101342.13;;;21.99;27.68
34124;BME280;13153;52.316;21.166;2023-05-03T12:04:03;101333.28;;;21.88;28.40
34124;BME280;13153;52.316;21.166;2023-05-03T12:06:35;101331.47;;;21.93;30.91
34124;BME280;13153;52.316;21.166;2023-05-03T12:09:03;101323.38;;;22.03;27.98
34124;BME280;13153;52.316;21.166;2023-05-03T12:11:31;101323.31;;;22.11;25.70
34124;BME280;13153;52.316;21.166;2023-05-03T12:14:04;101345.56;;;22.27;26.47
34124;BME280;13153;52.316;21.166;2023-05-03T12:16:50;101341.03;;;22.39;29.19
34124;BME280;13153;52.316;21.166;2023-05-03T12:19:27;101327.59;;;22.44;26.40
34124;BME280;13153;52.316;21.166;2023-05-03T12:21:55;101338.31;;;22.46;29.89
34124;BME280;13153;52.316;21.166;2023-05-03T12:24:21;101331.19;;;22.42;29.98
34124;BME280;13153;52.316;21.166;2023-05-03T12:26:51;101338.47;;;22.18;26.67
34124;BME280;13153;52.316;21.166;2023-05-03T12:29:17;101328.72;;;22.00;28.05
34124;BME280;13153;52.316;21.166;2023-05-03T12:31:44;101333.25;;;21.91;26.93
34124;BME280;13153;52.316;21.166;2023-05-03T12:34:10;101331.50;;;21.81;29.11
34124;BME280;13153;52.316;21.166;2023-05-03T12:36:37;101324.41;;;21.70;25.44
34124;BME280;13153;52.316;21.166;2023-05-03T12:39:03;101314.63;;;21.62;25.79
34124;BME280;13153;52.316;21.166;2023-05-03T12:41:29;101320.88;;;21.56;29.13
34124;BME280;13153;52.316;21.166;2023-05-03T12:43:59;101314.66;;;21.54;28.92
34124;BME280;13153;52.316;21.166;2023-05-03T12:46:28;101319.09;;;21.54;30.90
34124;BME280;13153;52.316;21.166;2023-05-03T12:48:54;101319.09;;;21.54;25.99
34124;BME280;13153;52.316;21.166;2023-05-03T12:51:19;101311.97;;;21.51;25.82
34124;BME280;13153;52.316;21.166;2023-05-03T12:53:46;101321.81;;;21.43;25.14
34124;BME280;13153;52.316;21.166;2023-05-03T12:56:13;101319.22;;;21.22;25.45
34124;BME280;13153;52.316;21.166;2023-05-03T12:58:39;101317.41;;;21.16;27.71
34124;BME280;13153;52.316;21.166;2023-05-03T13:01:07;101314.75;;;21.12;26.12
34124;BME280;13153;52.316;21.166;2023-05-03T13:03:32;101312.09;;;20.87;24.93
34124;BME280;13153;52.316;21.166;2023-05-03T13:06:00;101310.28;;;20.33;25.75
34124;BME280;13153;52.316;21.166;2023-05-03T13:08:29;101320.13;;;20.41;26.79
34124;BME280;13153;52.316;21.166;2023-05-03T13:10:55;101305.81;;;20.09;25.39